Richfield, Illinois
Current Conditions -  °F | °C
As of 2:54 AM on Wednesday 26 Nov 2014 (Local Time) from KUIN Reporting Station
Clear Clear  
Wind Chill: 19°   Ceiling: Unl
Heat Index: 27°   Visibility: 10mi
Dew Point: 21°   Wind: 8mph
Humidity: 78%   Direction: 150°SSE
Pressure: 30.05"   Gusts: NA
Location:  39.8007°N, 91.1205°W
Report Text: KUIN 260854Z AUTO 15007KT 10SM CLR M03/M06 A3005 RMK AO2 SLP184 T10281061 56017
Loading
Personal Weather Stations






























Interactive Weather Map New forecast layout! Learn more

10-Day Weather Forecast

Advertisements
Track Severe Weather on mobile